sensor_id;sensor_type;location;lat;lon;timestamp;temperature;humidity
5278;DHT22;2662;51.194;6.614;2024-02-26T00:01:39;9.40;99.90
5278;DHT22;2662;51.194;6.614;2024-02-26T00:04:11;9.40;99.90
5278;DHT22;2662;51.194;6.614;2024-02-26T00:06:38;9.40;99.90
5278;DHT22;2662;51.194;6.614;2024-02-26T00:09:07;9.40;99.90
5278;DHT22;2662;51.194;6.614;2024-02-26T00:11:36;9.40;99.90
5278;DHT22;2662;51.194;6.614;2024-02-26T00:14:03;9.40;99.90
5278;DHT22;2662;51.194;6.614;2024-02-26T00:16:31;9.30;99.90
5278;DHT22;2662;51.194;6.614;2024-02-26T00:18:58;9.20;99.90
5278;DHT22;2662;51.194;6.614;2024-02-26T00:21:28;9.10;99.90
5278;DHT22;2662;51.194;6.614;2024-02-26T00:23:55;9.00;99.90
5278;DHT22;2662;51.194;6.614;2024-02-26T00:26:22;9.00;99.90
5278;DHT22;2662;51.194;6.614;2024-02-26T00:28:49;9.00;99.90
5278;DHT22;2662;51.194;6.614;2024-02-26T00:31:16;9.00;99.90
5278;DHT22;2662;51.194;6.614;2024-02-26T00:33:43;8.90;99.90
5278;DHT22;2662;51.194;6.614;2024-02-26T00:36:10;8.90;99.90
5278;DHT22;2662;51.194;6.614;2024-02-26T00:38:39;8.80;99.90
5278;DHT22;2662;51.194;6.614;2024-02-26T00:41:06;8.70;99.90
5278;DHT22;2662;51.194;6.614;2024-02-26T00:43:33;8.50;99.90
5278;DHT22;2662;51.194;6.614;2024-02-26T00:46:00;8.40;99.90
5278;DHT22;2662;51.194;6.614;2024-02-26T00:48:29;8.20;99.90
5278;DHT22;2662;51.194;6.614;2024-02-26T00:50:56;8.10;99.90
5278;DHT22;2662;51.194;6.614;2024-02-26T00:53:23;7.90;99.90
5278;DHT22;2662;51.194;6.614;2024-02-26T00:55:51;7.80;99.90
5278;DHT22;2662;51.194;6.614;2024-02-26T00:58:18;7.70;99.90
5278;DHT22;2662;51.194;6.614;2024-02-26T01:00:45;7.70;99.90
5278;DHT22;2662;51.194;6.614;2024-02-26T01:03:12;7.70;99.90
5278;DHT22;2662;51.194;6.614;2024-02-26T01:05:39;7.70;99.90
5278;DHT22;2662;51.194;6.614;2024-02-26T01:08:06;7.70;99.90
5278;DHT22;2662;51.194;6.614;2024-02-26T01:10:33;7.60;99.90
5278;DHT22;2662;51.194;6.614;2024-02-26T01:13:02;7.60;99.90
5278;DHT22;2662;51.194;6.614;2024-02-26T01:15:29;7.50;99.90
5278;DHT22;2662;51.194;6.614;2024-02-26T01:17:58;7.40;99.90
5278;DHT22;2662;51.194;6.614;2024-02-26T01:20:25;7.40;99.90
5278;DHT22;2662;51.194;6.614;2024-02-26T01:22:53;7.30;99.90
5278;DHT22;2662;51.194;6.614;2024-02-26T01:25:19;7.30;99.90
5278;DHT22;2662;51.194;6.614;2024-02-26T01:27:46;7.40;99.90
5278;DHT22;2662;51.194;6.614;2024-02-26T01:30:15;7.40;99.90
5278;DHT22;2662;51.194;6.614;2024-02-26T01:32:42;7.40;99.90
5278;DHT22;2662;51.194;6.614;2024-02-26T01:35:09;7.40;99.90
5278;DHT22;2662;51.194;6.614;2024-02-26T01:37:37;7.40;99.90
5278;DHT22;2662;51.194;6.614;2024-02-26T01:40:05;7.50;99.90
5278;DHT22;2662;51.194;6.614;2024-02-26T01:42:33;7.40;99.90
5278;DHT22;2662;51.194;6.614;2024-02-26T01:45:00;7.50;99.90
5278;DHT22;2662;51.194;6.614;2024-02-26T01:47:34;7.50;99.90
5278;DHT22;2662;51.194;6.614;2024-02-26T01:50:01;7.50;99.90
5278;DHT22;2662;51.194;6.614;2024-02-26T01:52:28;7.40;99.90
5278;DHT22;2662;51.194;6.614;2024-02-26T01:54:58;7.40;99.90
5278;DHT22;2662;51.194;6.614;2024-02-26T01:57:27;7.40;99.90
5278;DHT22;2662;51.194;6.614;2024-02-26T01:59:55;7.40;99.90
5278;DHT22;2662;51.194;6.614;2024-02-26T02:02:22;7.30;99.90
5278;DHT22;2662;51.194;6.614;2024-02-26T02:04:51;7.20;99.90
5278;DHT22;2662;51.194;6.614;2024-02-26T02:07:19;7.10;99.90
5278;DHT22;2662;51.194;6.614;2024-02-26T02:09:47;7.10;99.90
5278;DHT22;2662;51.194;6.614;2024-02-26T02:12:14;7.10;99.90
5278;DHT22;2662;51.194;6.614;2024-02-26T02:14:41;7.10;99.90
5278;DHT22;2662;51.194;6.614;2024-02-26T02:17:08;7.00;99.90
5278;DHT22;2662;51.194;6.614;2024-02-26T02:19:36;7.00;99.90
5278;DHT22;2662;51.194;6.614;2024-02-26T02:22:07;6.90;99.90
5278;DHT22;2662;51.194;6.614;2024-02-26T02:24:34;6.90;99.90
5278;DHT22;2662;51.194;6.614;2024-02-26T02:27:03;6.90;99.90
5278;DHT22;2662;51.194;6.614;2024-02-26T02:29:30;6.90;99.90
5278;DHT22;2662;51.194;6.614;2024-02-26T02:31:57;6.90;99.90
5278;DHT22;2662;51.194;6.614;2024-02-26T02:34:25;6.90;99.90
5278;DHT22;2662;51.194;6.614;2024-02-26T02:36:54;6.80;99.90
5278;DHT22;2662;51.194;6.614;2024-02-26T02:39:22;6.80;99.90
5278;DHT22;2662;51.194;6.614;2024-02-26T02:41:49;6.80;99.90
5278;DHT22;2662;51.194;6.614;2024-02-26T02:44:16;6.70;99.90
5278;DHT22;2662;51.194;6.614;2024-02-26T02:46:45;6.70;99.90
5278;DHT22;2662;51.194;6.614;2024-02-26T02:49:12;6.50;99.90
5278;DHT22;2662;51.194;6.614;2024-02-26T02:51:39;6.40;99.90
5278;DHT22;2662;51.194;6.614;2024-02-26T02:54:06;6.30;99.90
5278;DHT22;2662;51.194;6.614;2024-02-26T02:56:34;6.30;99.90
5278;DHT22;2662;51.194;6.614;2024-02-26T02:59:02;6.30;99.90
5278;DHT22;2662;51.194;6.614;2024-02-26T03:01:28;6.30;99.90
5278;DHT22;2662;51.194;6.614;2024-02-26T03:03:55;6.30;99.90
5278;DHT22;2662;51.194;6.614;2024-02-26T03:06:22;6.30;99.90
5278;DHT22;2662;51.194;6.614;2024-02-26T03:08:52;6.40;99.90
5278;DHT22;2662;51.194;6.614;2024-02-26T03:11:20;6.30;99.90
5278;DHT22;2662;51.194;6.614;2024-02-26T03:13:51;6.30;99.90
5278;DHT22;2662;51.194;6.614;2024-02-26T03:16:18;6.30;99.90
5278;DHT22;2662;51.194;6.614;2024-02-26T03:18:44;6.20;99.90
5278;DHT22;2662;51.194;6.614;2024-02-26T03:21:12;6.20;99.90
5278;DHT22;2662;51.194;6.614;2024-02-26T03:23:38;6.20;99.90
5278;DHT22;2662;51.194;6.614;2024-02-26T03:26:05;6.20;99.90
5278;DHT22;2662;51.194;6.614;2024-02-26T03:28:34;6.20;99.90
5278;DHT22;2662;51.194;6.614;2024-02-26T03:31:02;6.20;99.90
5278;DHT22;2662;51.194;6.614;2024-02-26T03:33:31;6.10;99.90
5278;DHT22;2662;51.194;6.614;2024-02-26T03:35:59;6.10;99.90
5278;DHT22;2662;51.194;6.614;2024-02-26T03:38:29;6.10;99.90
5278;DHT22;2662;51.194;6.614;2024-02-26T03:40:56;6.10;99.90
5278;DHT22;2662;51.194;6.614;2024-02-26T03:43:23;6.00;99.90
5278;DHT22;2662;51.194;6.614;2024-02-26T03:45:50;6.00;99.90
5278;DHT22;2662;51.194;6.614;2024-02-26T03:48:18;5.90;99.90
5278;DHT22;2662;51.194;6.614;2024-02-26T03:50:45;6.00;99.90
5278;DHT22;2662;51.194;6.614;2024-02-26T03:53:12;6.00;99.90
5278;DHT22;2662;51.194;6.614;2024-02-26T03:55:39;6.00;99.90
5278;DHT22;2662;51.194;6.614;2024-02-26T03:58:07;6.00;99.90
5278;DHT22;2662;51.194;6.614;2024-02-26T04:00:34;6.00;99.90
5278;DHT22;2662;51.194;6.614;2024-02-26T04:03:01;6.00;99.90
5278;DHT22;2662;51.194;6.614;2024-02-26T04:05:29;5.90;99.90
5278;DHT22;2662;51.194;6.614;2024-02-26T04:07:56;5.80;99.90
5278;DHT22;2662;51.194;6.614;2024-02-26T04:10:24;5.80;99.90
5278;DHT22;2662;51.194;6.614;2024-02-26T04:12:51;5.80;99.90
5278;DHT22;2662;51.194;6.614;2024-02-26T04:15:18;5.80;99.90
5278;DHT22;2662;51.194;6.614;2024-02-26T04:17:45;5.70;99.90
5278;DHT22;2662;51.194;6.614;2024-02-26T04:20:14;5.80;99.90
5278;DHT22;2662;51.194;6.614;2024-02-26T04:22:43;5.70;99.90
5278;DHT22;2662;51.194;6.614;2024-02-26T04:25:11;5.70;99.90
5278;DHT22;2662;51.194;6.614;2024-02-26T04:27:40;5.80;99.90
5278;DHT22;2662;51.194;6.614;2024-02-26T04:30:08;5.70;99.90
5278;DHT22;2662;51.194;6.614;2024-02-26T04:32:36;5.70;99.90
5278;DHT22;2662;51.194;6.614;2024-02-26T04:35:03;5.60;99.90
5278;DHT22;2662;51.194;6.614;2024-02-26T04:37:30;5.60;99.90
5278;DHT22;2662;51.194;6.614;2024-02-26T04:40:00;5.70;99.90
5278;DHT22;2662;51.194;6.614;2024-02-26T04:42:28;5.70;99.90
5278;DHT22;2662;51.194;6.614;2024-02-26T04:44:55;5.70;99.90
5278;DHT22;2662;51.194;6.614;2024-02-26T04:47:22;5.60;99.90
5278;DHT22;2662;51.194;6.614;2024-02-26T04:49:50;5.60;99.90
5278;DHT22;2662;51.194;6.614;2024-02-26T04:52:19;5.50;99.90
5278;DHT22;2662;51.194;6.614;2024-02-26T04:54:46;5.40;99.90
5278;DHT22;2662;51.194;6.614;2024-02-26T04:57:14;5.50;99.90
5278;DHT22;2662;51.194;6.614;2024-02-26T04:59:44;5.50;99.90
5278;DHT22;2662;51.194;6.614;2024-02-26T05:02:11;5.50;99.90
5278;DHT22;2662;51.194;6.614;2024-02-26T05:04:38;5.50;99.90
5278;DHT22;2662;51.194;6.614;2024-02-26T05:07:05;5.50;99.90
5278;DHT22;2662;51.194;6.614;2024-02-26T05:09:32;5.50;99.90
5278;DHT22;2662;51.194;6.614;2024-02-26T05:11:59;5.60;99.90
5278;DHT22;2662;51.194;6.614;2024-02-26T05:14:27;5.60;99.90
5278;DHT22;2662;51.194;6.614;2024-02-26T05:16:54;5.60;99.90
5278;DHT22;2662;51.194;6.614;2024-02-26T05:19:21;5.60;99.90
5278;DHT22;2662;51.194;6.614;2024-02-26T05:21:48;5.60;99.90
5278;DHT22;2662;51.194;6.614;2024-02-26T05:24:16;5.60;99.90
5278;DHT22;2662;51.194;6.614;2024-02-26T05:26:43;5.70;99.90
5278;DHT22;2662;51.194;6.614;2024-02-26T05:29:10;5.70;99.90
5278;DHT22;2662;51.194;6.614;2024-02-26T05:31:39;5.60;99.90
5278;DHT22;2662;51.194;6.614;2024-02-26T05:34:06;5.60;99.90
5278;DHT22;2662;51.194;6.614;2024-02-26T05:36:33;5.70;99.90
5278;DHT22;2662;51.194;6.614;2024-02-26T05:39:00;5.80;99.90
5278;DHT22;2662;51.194;6.614;2024-02-26T05:41:27;5.80;99.90
5278;DHT22;2662;51.194;6.614;2024-02-26T05:43:54;5.70;99.90
5278;DHT22;2662;51.194;6.614;2024-02-26T05:46:22;5.60;99.90
5278;DHT22;2662;51.194;6.614;2024-02-26T05:48:52;5.70;99.90
5278;DHT22;2662;51.194;6.614;2024-02-26T05:51:19;5.70;99.90
5278;DHT22;2662;51.194;6.614;2024-02-26T05:53:46;5.80;99.90
5278;DHT22;2662;51.194;6.614;2024-02-26T05:56:20;5.70;99.90
5278;DHT22;2662;51.194;6.614;2024-02-26T05:58:47;5.70;99.90
5278;DHT22;2662;51.194;6.614;2024-02-26T06:01:16;5.70;99.90
5278;DHT22;2662;51.194;6.614;2024-02-26T06:03:43;5.70;99.90
5278;DHT22;2662;51.194;6.614;2024-02-26T06:06:12;5.70;99.90
5278;DHT22;2662;51.194;6.614;2024-02-26T06:08:40;5.70;99.90
5278;DHT22;2662;51.194;6.614;2024-02-26T06:11:07;5.70;99.90
5278;DHT22;2662;51.194;6.614;2024-02-26T06:13:35;5.70;99.90
5278;DHT22;2662;51.194;6.614;2024-02-26T06:16:02;5.70;99.90
5278;DHT22;2662;51.194;6.614;2024-02-26T06:18:29;5.70;99.90
5278;DHT22;2662;51.194;6.614;2024-02-26T06:20:55;5.60;99.90
5278;DHT22;2662;51.194;6.614;2024-02-26T06:23:24;5.70;99.90
5278;DHT22;2662;51.194;6.614;2024-02-26T06:25:51;5.60;99.90
5278;DHT22;2662;51.194;6.614;2024-02-26T06:28:18;5.60;99.90
5278;DHT22;2662;51.194;6.614;2024-02-26T06:30:45;5.60;99.90
5278;DHT22;2662;51.194;6.614;2024-02-26T06:33:13;5.70;99.90
5278;DHT22;2662;51.194;6.614;2024-02-26T06:35:41;5.60;99.90
5278;DHT22;2662;51.194;6.614;2024-02-26T06:38:07;5.60;99.90
5278;DHT22;2662;51.194;6.614;2024-02-26T06:40:36;5.60;99.90
5278;DHT22;2662;51.194;6.614;2024-02-26T06:43:03;5.70;99.90
5278;DHT22;2662;51.194;6.614;2024-02-26T06:45:30;5.60;99.90
5278;DHT22;2662;51.194;6.614;2024-02-26T06:47:58;5.80;99.90
5278;DHT22;2662;51.194;6.614;2024-02-26T06:50:25;5.80;99.90
5278;DHT22;2662;51.194;6.614;2024-02-26T06:52:52;5.90;99.90
5278;DHT22;2662;51.194;6.614;2024-02-26T06:55:19;5.90;99.90
5278;DHT22;2662;51.194;6.614;2024-02-26T06:57:47;5.90;99.90
5278;DHT22;2662;51.194;6.614;2024-02-26T07:00:15;5.90;99.90
5278;DHT22;2662;51.194;6.614;2024-02-26T07:02:43;5.90;99.90
5278;DHT22;2662;51.194;6.614;2024-02-26T07:05:10;5.90;99.90
5278;DHT22;2662;51.194;6.614;2024-02-26T07:07:38;6.00;99.90
5278;DHT22;2662;51.194;6.614;2024-02-26T07:10:06;5.90;99.90
5278;DHT22;2662;51.194;6.614;2024-02-26T07:12:35;5.80;99.90
5278;DHT22;2662;51.194;6.614;2024-02-26T07:15:03;5.70;99.90
5278;DHT22;2662;51.194;6.614;2024-02-26T07:17:33;5.70;99.90
5278;DHT22;2662;51.194;6.614;2024-02-26T07:20:01;5.70;99.90
5278;DHT22;2662;51.194;6.614;2024-02-26T07:22:29;5.80;99.90
5278;DHT22;2662;51.194;6.614;2024-02-26T07:24:56;5.80;99.90
5278;DHT22;2662;51.194;6.614;2024-02-26T07:27:23;5.80;99.90
5278;DHT22;2662;51.194;6.614;2024-02-26T07:29:51;5.90;99.90
5278;DHT22;2662;51.194;6.614;2024-02-26T07:32:19;5.90;99.90
5278;DHT22;2662;51.194;6.614;2024-02-26T07:34:46;5.90;99.90
5278;DHT22;2662;51.194;6.614;2024-02-26T07:37:13;5.90;99.90
5278;DHT22;2662;51.194;6.614;2024-02-26T07:39:40;5.90;99.90
5278;DHT22;2662;51.194;6.614;2024-02-26T07:42:07;6.00;99.90
5278;DHT22;2662;51.194;6.614;2024-02-26T07:44:34;6.00;99.90
5278;DHT22;2662;51.194;6.614;2024-02-26T07:47:01;6.00;99.90
5278;DHT22;2662;51.194;6.614;2024-02-26T07:49:29;6.00;99.90
5278;DHT22;2662;51.194;6.614;2024-02-26T07:51:56;6.00;99.90
5278;DHT22;2662;51.194;6.614;2024-02-26T07:54:24;6.00;99.90
5278;DHT22;2662;51.194;6.614;2024-02-26T07:56:51;6.10;99.90
5278;DHT22;2662;51.194;6.614;2024-02-26T07:59:18;6.10;99.90
5278;DHT22;2662;51.194;6.614;2024-02-26T08:01:49;6.20;99.90
5278;DHT22;2662;51.194;6.614;2024-02-26T08:04:16;6.20;99.90
5278;DHT22;2662;51.194;6.614;2024-02-26T08:06:45;6.10;99.90
5278;DHT22;2662;51.194;6.614;2024-02-26T08:09:12;6.20;99.90
5278;DHT22;2662;51.194;6.614;2024-02-26T08:11:39;6.20;99.90
5278;DHT22;2662;51.194;6.614;2024-02-26T08:14:06;6.20;99.90
5278;DHT22;2662;51.194;6.614;2024-02-26T08:16:32;6.20;99.90
5278;DHT22;2662;51.194;6.614;2024-02-26T08:18:59;6.20;99.90
5278;DHT22;2662;51.194;6.614;2024-02-26T08:21:26;6.20;99.90
5278;DHT22;2662;51.194;6.614;2024-02-26T08:23:54;6.20;99.90
5278;DHT22;2662;51.194;6.614;2024-02-26T08:26:21;6.30;99.90
5278;DHT22;2662;51.194;6.614;2024-02-26T08:28:49;6.20;99.90
5278;DHT22;2662;51.194;6.614;2024-02-26T08:31:17;6.30;99.90
5278;DHT22;2662;51.194;6.614;2024-02-26T08:33:43;6.40;99.90
5278;DHT22;2662;51.194;6.614;2024-02-26T08:36:11;6.50;99.90
5278;DHT22;2662;51.194;6.614;2024-02-26T08:38:38;6.40;99.90
5278;DHT22;2662;51.194;6.614;2024-02-26T08:41:06;6.40;99.90
5278;DHT22;2662;51.194;6.614;2024-02-26T08:43:33;6.50;99.90
5278;DHT22;2662;51.194;6.614;2024-02-26T08:46:00;6.40;99.90
5278;DHT22;2662;51.194;6.614;2024-02-26T08:48:28;6.50;99.90
5278;DHT22;2662;51.194;6.614;2024-02-26T08:54:18;6.50;99.90
5278;DHT22;2662;51.194;6.614;2024-02-26T08:56:46;6.50;99.90
5278;DHT22;2662;51.194;6.614;2024-02-26T08:59:13;6.50;99.90
5278;DHT22;2662;51.194;6.614;2024-02-26T09:01:42;6.50;99.90
5278;DHT22;2662;51.194;6.614;2024-02-26T09:04:08;6.40;99.90
5278;DHT22;2662;51.194;6.614;2024-02-26T09:06:35;6.40;99.90
5278;DHT22;2662;51.194;6.614;2024-02-26T09:09:02;6.50;99.90
5278;DHT22;2662;51.194;6.614;2024-02-26T09:11:30;6.40;99.90
5278;DHT22;2662;51.194;6.614;2024-02-26T09:13:58;6.40;99.90
5278;DHT22;2662;51.194;6.614;2024-02-26T09:16:26;6.30;99.90
5278;DHT22;2662;51.194;6.614;2024-02-26T09:18:53;6.30;99.90
5278;DHT22;2662;51.194;6.614;2024-02-26T09:21:20;6.30;99.90
5278;DHT22;2662;51.194;6.614;2024-02-26T09:23:49;6.30;99.90
5278;DHT22;2662;51.194;6.614;2024-02-26T09:26:16;6.20;99.90
5278;DHT22;2662;51.194;6.614;2024-02-26T09:28:43;6.20;99.90
5278;DHT22;2662;51.194;6.614;2024-02-26T09:31:11;6.20;99.90
5278;DHT22;2662;51.194;6.614;2024-02-26T09:33:38;6.20;99.90
5278;DHT22;2662;51.194;6.614;2024-02-26T09:36:06;6.20;99.90
5278;DHT22;2662;51.194;6.614;2024-02-26T09:38:33;6.20;99.90
5278;DHT22;2662;51.194;6.614;2024-02-26T09:41:03;6.20;99.90
5278;DHT22;2662;51.194;6.614;2024-02-26T09:43:36;6.20;99.90
5278;DHT22;2662;51.194;6.614;2024-02-26T09:46:04;6.20;99.90
5278;DHT22;2662;51.194;6.614;2024-02-26T09:48:34;6.30;99.90
5278;DHT22;2662;51.194;6.614;2024-02-26T09:51:02;6.30;99.90
5278;DHT22;2662;51.194;6.614;2024-02-26T09:53:30;6.40;99.90
5278;DHT22;2662;51.194;6.614;2024-02-26T09:56:01;6.40;99.90
5278;DHT22;2662;51.194;6.614;2024-02-26T09:58:29;6.50;99.90
5278;DHT22;2662;51.194;6.614;2024-02-26T10:00:57;6.50;99.90
5278;DHT22;2662;51.194;6.614;2024-02-26T10:03:28;6.50;99.90
5278;DHT22;2662;51.194;6.614;2024-02-26T10:05:58;6.60;99.90
5278;DHT22;2662;51.194;6.614;2024-02-26T10:08:29;6.50;99.90
5278;DHT22;2662;51.194;6.614;2024-02-26T10:10:57;6.50;99.90
5278;DHT22;2662;51.194;6.614;2024-02-26T10:13:24;6.60;99.90
5278;DHT22;2662;51.194;6.614;2024-02-26T10:15:51;6.40;99.90
5278;DHT22;2662;51.194;6.614;2024-02-26T10:18:18;6.40;99.90
5278;DHT22;2662;51.194;6.614;2024-02-26T10:21:00;6.40;99.90
5278;DHT22;2662;51.194;6.614;2024-02-26T10:23:29;6.40;99.90
5278;DHT22;2662;51.194;6.614;2024-02-26T10:25:56;6.50;99.90
5278;DHT22;2662;51.194;6.614;2024-02-26T10:28:23;6.60;99.90
5278;DHT22;2662;51.194;6.614;2024-02-26T10:30:51;6.60;99.90
5278;DHT22;2662;51.194;6.614;2024-02-26T10:33:20;6.70;99.90
5278;DHT22;2662;51.194;6.614;2024-02-26T10:35:46;6.80;99.90
5278;DHT22;2662;51.194;6.614;2024-02-26T10:38:15;6.80;99.90
5278;DHT22;2662;51.194;6.614;2024-02-26T10:40:45;6.70;99.90
5278;DHT22;2662;51.194;6.614;2024-02-26T10:43:11;6.60;99.90
5278;DHT22;2662;51.194;6.614;2024-02-26T10:45:40;6.60;99.90
5278;DHT22;2662;51.194;6.614;2024-02-26T10:48:10;6.50;99.90
5278;DHT22;2662;51.194;6.614;2024-02-26T10:50:38;6.50;99.90
5278;DHT22;2662;51.194;6.614;2024-02-26T10:53:15;6.50;99.90
5278;DHT22;2662;51.194;6.614;2024-02-26T10:55:46;6.50;99.90
5278;DHT22;2662;51.194;6.614;2024-02-26T10:58:14;6.60;99.90
5278;DHT22;2662;51.194;6.614;2024-02-26T11:00:43;6.60;99.90
5278;DHT22;2662;51.194;6.614;2024-02-26T11:03:11;6.60;99.90
5278;DHT22;2662;51.194;6.614;2024-02-26T11:05:40;6.70;99.90
5278;DHT22;2662;51.194;6.614;2024-02-26T11:08:08;6.80;99.90
5278;DHT22;2662;51.194;6.614;2024-02-26T11:10:38;6.80;99.90
5278;DHT22;2662;51.194;6.614;2024-02-26T11:13:10;6.80;99.90
5278;DHT22;2662;51.194;6.614;2024-02-26T11:15:39;7.00;99.90
5278;DHT22;2662;51.194;6.614;2024-02-26T11:18:07;6.90;99.90
5278;DHT22;2662;51.194;6.614;2024-02-26T11:20:38;7.00;99.90
5278;DHT22;2662;51.194;6.614;2024-02-26T11:23:07;7.00;99.90
5278;DHT22;2662;51.194;6.614;2024-02-26T11:25:34;7.00;99.90
5278;DHT22;2662;51.194;6.614;2024-02-26T11:28:07;7.00;99.90
5278;DHT22;2662;51.194;6.614;2024-02-26T11:30:37;7.00;99.90
5278;DHT22;2662;51.194;6.614;2024-02-26T11:33:07;7.10;99.90
5278;DHT22;2662;51.194;6.614;2024-02-26T11:35:36;7.00;99.90
5278;DHT22;2662;51.194;6.614;2024-02-26T11:38:03;7.00;99.90
5278;DHT22;2662;51.194;6.614;2024-02-26T11:40:32;6.90;99.90
5278;DHT22;2662;51.194;6.614;2024-02-26T11:43:00;6.90;99.90
5278;DHT22;2662;51.194;6.614;2024-02-26T11:45:51;7.00;99.90
5278;DHT22;2662;51.194;6.614;2024-02-26T11:48:25;7.00;99.90
5278;DHT22;2662;51.194;6.614;2024-02-26T11:50:54;6.90;99.90
5278;DHT22;2662;51.194;6.614;2024-02-26T11:53:22;7.00;99.90
5278;DHT22;2662;51.194;6.614;2024-02-26T11:56:21;7.00;99.90
5278;DHT22;2662;51.194;6.614;2024-02-26T11:58:48;6.90;99.90
5278;DHT22;2662;51.194;6.614;2024-02-26T12:01:43;6.90;99.90
5278;DHT22;2662;51.194;6.614;2024-02-26T12:04:16;7.00;99.90
5278;DHT22;2662;51.194;6.614;2024-02-26T12:06:50;7.00;99.90
5278;DHT22;2662;51.194;6.614;2024-02-26T12:09:34;6.80;99.90
5278;DHT22;2662;51.194;6.614;2024-02-26T12:12:03;6.80;99.90
5278;DHT22;2662;51.194;6.614;2024-02-26T12:14:32;6.80;99.90
5278;DHT22;2662;51.194;6.614;2024-02-26T12:17:01;6.70;99.90
5278;DHT22;2662;51.194;6.614;2024-02-26T12:19:28;6.70;99.90
5278;DHT22;2662;51.194;6.614;2024-02-26T12:21:54;6.60;99.90
5278;DHT22;2662;51.194;6.614;2024-02-26T12:24:21;6.60;99.90
5278;DHT22;2662;51.194;6.614;2024-02-26T12:26:49;6.60;99.90
5278;DHT22;2662;51.194;6.614;2024-02-26T12:29:16;6.70;99.90
5278;DHT22;2662;51.194;6.614;2024-02-26T12:31:43;6.70;99.90
5278;DHT22;2662;51.194;6.614;2024-02-26T12:34:12;6.60;99.90
5278;DHT22;2662;51.194;6.614;2024-02-26T12:36:41;6.60;99.90
5278;DHT22;2662;51.194;6.614;2024-02-26T12:39:09;6.60;99.90
5278;DHT22;2662;51.194;6.614;2024-02-26T12:41:38;6.60;99.90
5278;DHT22;2662;51.194;6.614;2024-02-26T12:44:05;6.70;99.90
5278;DHT22;2662;51.194;6.614;2024-02-26T12:46:32;6.70;99.90
5278;DHT22;2662;51.194;6.614;2024-02-26T12:48:59;6.70;99.90
5278;DHT22;2662;51.194;6.614;2024-02-26T12:51:28;6.80;99.90
5278;DHT22;2662;51.194;6.614;2024-02-26T12:53:56;6.80;99.90
5278;DHT22;2662;51.194;6.614;2024-02-26T12:56:24;6.80;99.90
5278;DHT22;2662;51.194;6.614;2024-02-26T12:58:52;6.70;99.90
5278;DHT22;2662;51.194;6.614;2024-02-26T13:01:22;6.80;99.90
5278;DHT22;2662;51.194;6.614;2024-02-26T13:03:50;6.80;99.90
5278;DHT22;2662;51.194;6.614;2024-02-26T13:06:18;6.90;99.90
5278;DHT22;2662;51.194;6.614;2024-02-26T13:08:46;6.80;99.90
5278;DHT22;2662;51.194;6.614;2024-02-26T13:11:14;6.90;99.90
5278;DHT22;2662;51.194;6.614;2024-02-26T13:13:41;7.00;99.90
5278;DHT22;2662;51.194;6.614;2024-02-26T13:16:09;7.00;99.90
5278;DHT22;2662;51.194;6.614;2024-02-26T13:18:36;7.00;99.90
5278;DHT22;2662;51.194;6.614;2024-02-26T13:21:11;6.90;99.90
5278;DHT22;2662;51.194;6.614;2024-02-26T13:23:38;7.10;99.90
5278;DHT22;2662;51.194;6.614;2024-02-26T13:26:11;7.10;99.90
5278;DHT22;2662;51.194;6.614;2024-02-26T13:28:38;7.20;99.90
5278;DHT22;2662;51.194;6.614;2024-02-26T13:31:05;7.40;99.90
5278;DHT22;2662;51.194;6.614;2024-02-26T13:33:33;7.50;99.90
5278;DHT22;2662;51.194;6.614;2024-02-26T13:36:01;7.70;99.90
5278;DHT22;2662;51.194;6.614;2024-02-26T13:38:28;7.80;99.90
5278;DHT22;2662;51.194;6.614;2024-02-26T13:40:55;7.70;99.90
5278;DHT22;2662;51.194;6.614;2024-02-26T13:43:23;7.70;99.90
5278;DHT22;2662;51.194;6.614;2024-02-26T13:45:51;7.70;99.90
5278;DHT22;2662;51.194;6.614;2024-02-26T13:48:18;7.60;99.90
5278;DHT22;2662;51.194;6.614;2024-02-26T13:50:45;7.60;99.90
5278;DHT22;2662;51.194;6.614;2024-02-26T13:53:13;7.60;99.90
5278;DHT22;2662;51.194;6.614;2024-02-26T13:55:42;7.50;99.90
5278;DHT22;2662;51.194;6.614;2024-02-26T13:58:11;7.70;99.90
5278;DHT22;2662;51.194;6.614;2024-02-26T14:00:40;7.90;99.90
5278;DHT22;2662;51.194;6.614;2024-02-26T14:03:07;8.00;99.90
5278;DHT22;2662;51.194;6.614;2024-02-26T14:05:34;8.00;99.90
5278;DHT22;2662;51.194;6.614;2024-02-26T14:08:03;8.10;99.90
5278;DHT22;2662;51.194;6.614;2024-02-26T14:10:30;8.00;99.90
5278;DHT22;2662;51.194;6.614;2024-02-26T14:12:59;8.10;99.90
5278;DHT22;2662;51.194;6.614;2024-02-26T14:15:27;8.20;99.90
5278;DHT22;2662;51.194;6.614;2024-02-26T14:17:56;8.20;99.90
5278;DHT22;2662;51.194;6.614;2024-02-26T14:20:25;8.20;99.90
5278;DHT22;2662;51.194;6.614;2024-02-26T14:22:54;8.30;99.90
5278;DHT22;2662;51.194;6.614;2024-02-26T14:25:21;8.40;99.90
5278;DHT22;2662;51.194;6.614;2024-02-26T14:27:48;8.40;99.90
5278;DHT22;2662;51.194;6.614;2024-02-26T14:30:15;8.40;99.90
5278;DHT22;2662;51.194;6.614;2024-02-26T14:32:42;8.40;99.90
5278;DHT22;2662;51.194;6.614;2024-02-26T14:35:13;8.60;99.90
5278;DHT22;2662;51.194;6.614;2024-02-26T14:37:40;8.50;99.90
5278;DHT22;2662;51.194;6.614;2024-02-26T14:40:08;8.20;99.90
5278;DHT22;2662;51.194;6.614;2024-02-26T14:42:35;8.10;99.90
5278;DHT22;2662;51.194;6.614;2024-02-26T14:45:03;8.00;99.90
5278;DHT22;2662;51.194;6.614;2024-02-26T14:47:36;8.10;99.90
5278;DHT22;2662;51.194;6.614;2024-02-26T14:50:03;8.30;99.90
5278;DHT22;2662;51.194;6.614;2024-02-26T14:52:31;8.30;99.90
5278;DHT22;2662;51.194;6.614;2024-02-26T14:55:00;8.20;99.90
5278;DHT22;2662;51.194;6.614;2024-02-26T14:57:27;8.20;99.90
5278;DHT22;2662;51.194;6.614;2024-02-26T14:59:54;8.00;99.90
5278;DHT22;2662;51.194;6.614;2024-02-26T15:02:20;8.00;99.90
5278;DHT22;2662;51.194;6.614;2024-02-26T15:04:47;8.00;99.90
5278;DHT22;2662;51.194;6.614;2024-02-26T15:07:15;7.90;99.90
5278;DHT22;2662;51.194;6.614;2024-02-26T15:09:43;7.90;99.90
5278;DHT22;2662;51.194;6.614;2024-02-26T15:12:11;7.90;99.90
5278;DHT22;2662;51.194;6.614;2024-02-26T15:14:38;7.90;99.90
5278;DHT22;2662;51.194;6.614;2024-02-26T15:17:06;8.00;99.90
5278;DHT22;2662;51.194;6.614;2024-02-26T15:19:35;8.00;99.90
5278;DHT22;2662;51.194;6.614;2024-02-26T15:22:02;7.80;99.90
5278;DHT22;2662;51.194;6.614;2024-02-26T15:24:29;7.80;99.90
5278;DHT22;2662;51.194;6.614;2024-02-26T15:26:58;7.70;99.90
5278;DHT22;2662;51.194;6.614;2024-02-26T15:29:25;7.70;99.90
5278;DHT22;2662;51.194;6.614;2024-02-26T15:31:52;7.70;99.90
5278;DHT22;2662;51.194;6.614;2024-02-26T15:34:18;7.70;99.90
5278;DHT22;2662;51.194;6.614;2024-02-26T15:36:47;7.70;99.90
5278;DHT22;2662;51.194;6.614;2024-02-26T15:39:14;7.70;99.90
5278;DHT22;2662;51.194;6.614;2024-02-26T15:41:41;7.80;99.90
5278;DHT22;2662;51.194;6.614;2024-02-26T15:44:10;7.90;99.90
5278;DHT22;2662;51.194;6.614;2024-02-26T15:46:39;7.90;99.90
5278;DHT22;2662;51.194;6.614;2024-02-26T15:49:08;7.90;99.90
5278;DHT22;2662;51.194;6.614;2024-02-26T15:51:35;8.00;99.90
5278;DHT22;2662;51.194;6.614;2024-02-26T15:54:02;8.00;99.90
5278;DHT22;2662;51.194;6.614;2024-02-26T15:56:30;8.00;99.90
5278;DHT22;2662;51.194;6.614;2024-02-26T15:58:58;8.10;99.90
5278;DHT22;2662;51.194;6.614;2024-02-26T16:01:26;8.10;99.90
5278;DHT22;2662;51.194;6.614;2024-02-26T16:03:53;8.10;99.90
5278;DHT22;2662;51.194;6.614;2024-02-26T16:06:25;8.10;99.90
5278;DHT22;2662;51.194;6.614;2024-02-26T16:08:54;8.00;99.90
5278;DHT22;2662;51.194;6.614;2024-02-26T16:11:21;7.90;99.90
5278;DHT22;2662;51.194;6.614;2024-02-26T16:13:57;8.00;99.90
5278;DHT22;2662;51.194;6.614;2024-02-26T16:16:29;8.00;99.90
5278;DHT22;2662;51.194;6.614;2024-02-26T16:19:05;8.00;99.90
5278;DHT22;2662;51.194;6.614;2024-02-26T16:21:33;8.00;99.90
5278;DHT22;2662;51.194;6.614;2024-02-26T16:24:00;8.00;99.90
5278;DHT22;2662;51.194;6.614;2024-02-26T16:26:27;7.90;99.90